Time;durP1;ratioP1;P1;durP2;ratioP2;P2;SDS_P1;SDS_P2;PMS_P1;PMS_P2;Temp;Humidity;BMP_temperature;BMP_pressure;BME280_temperature;BME280_humidity;BME280_pressure;Samples;Min_cycle;Max_cycle;Signal;HPM_P1;HPM_P2
2022/04/01 00:02:21;;;;;;;;;;;7.30;99.90;;;;;;4956365;28;19941;-78
2022/04/01 00:04:48;;;;;;;;;;;7.30;99.90;;;;;;4960338;28;19926;-77
2022/04/01 00:07:17;;;;;;;;;;;7.40;99.90;;;;;;4958632;28;20017;-79
2022/04/01 00:09:44;;;;;;;;;;;7.20;99.80;;;;;;4950102;28;20290;-77
2022/04/01 00:12:11;;;;;;;;;;;7.20;99.90;;;;;;4960521;28;19926;-78
2022/04/01 00:14:38;;;;;;;;;;;7.20;99.90;;;;;;4952678;28;19938;-76
2022/04/01 00:17:05;;;;;;;;;;;7.20;99.90;;;;;;4959720;28;19989;-78
2022/04/01 00:19:32;;;;;;;;;;;7.20;99.90;;;;;;4957422;28;19957;-77
2022/04/01 00:21:59;;;;;;;;;;;7.10;99.80;;;;;;4954700;28;19926;-78
2022/04/01 00:24:28;;;;;;;;;;;7.20;99.90;;;;;;4959579;28;19970;-77
2022/04/01 00:26:54;;;;;;;;;;;7.20;99.80;;;;;;4953945;28;19927;-77
2022/04/01 00:29:21;;;;;;;;;;;7.10;99.70;;;;;;4967724;28;19982;-78
2022/04/01 00:31:49;;;;;;;;;;;7.10;99.80;;;;;;4951952;28;19926;-78
2022/04/01 00:34:16;;;;;;;;;;;7.10;99.90;;;;;;4953411;28;19974;-77
2022/04/01 00:36:43;;;;;;;;;;;7.10;99.90;;;;;;4950656;28;20747;-78
2022/04/01 00:39:10;;;;;;;;;;;7.10;99.50;;;;;;4955171;28;19982;-78
2022/04/01 00:41:42;;;;;;;;;;;7.00;99.50;;;;;;4959066;28;19926;-78
2022/04/01 00:44:15;;;;;;;;;;;7.00;99.60;;;;;;4959509;28;19982;-78
2022/04/01 00:46:42;;;;;;;;;;;7.00;99.60;;;;;;4949594;28;19927;-78
2022/04/01 00:49:09;;;;;;;;;;;6.90;99.50;;;;;;4949964;28;19933;-77
2022/04/01 00:51:37;;;;;;;;;;;6.90;99.60;;;;;;4968985;28;19934;-78
2022/04/01 00:54:05;;;;;;;;;;;6.80;99.60;;;;;;4954080;28;20320;-77
2022/04/01 00:56:32;;;;;;;;;;;6.90;99.70;;;;;;4951204;28;19927;-78
2022/04/01 00:59:01;;;;;;;;;;;6.90;99.60;;;;;;4957765;28;19927;-78
2022/04/01 01:01:28;;;;;;;;;;;6.80;99.30;;;;;;4945902;28;19930;-78
2022/04/01 01:03:55;;;;;;;;;;;6.90;99.50;;;;;;4958261;28;20401;-77
2022/04/01 01:06:22;;;;;;;;;;;6.80;99.50;;;;;;4960544;28;19988;-78
2022/04/01 01:08:49;;;;;;;;;;;6.80;99.60;;;;;;4955175;28;19935;-78
2022/04/01 01:11:16;;;;;;;;;;;6.80;99.30;;;;;;4957207;28;19970;-78
2022/04/01 01:13:43;;;;;;;;;;;6.80;99.40;;;;;;4964576;28;19997;-76
2022/04/01 01:16:11;;;;;;;;;;;6.70;99.20;;;;;;4948866;28;19981;-77
2022/04/01 01:18:39;;;;;;;;;;;6.70;99.30;;;;;;4972515;28;19930;-77
2022/04/01 01:21:09;;;;;;;;;;;6.70;99.20;;;;;;4964473;28;19934;-76
2022/04/01 01:23:38;;;;;;;;;;;6.70;99.20;;;;;;4952513;28;20624;-77
2022/04/01 01:26:07;;;;;;;;;;;6.70;99.30;;;;;;4953056;28;20001;-77
2022/04/01 01:28:34;;;;;;;;;;;6.70;99.10;;;;;;4948216;28;19931;-76
2022/04/01 01:31:02;;;;;;;;;;;6.60;98.90;;;;;;4951984;28;19934;-77
2022/04/01 01:33:28;;;;;;;;;;;6.60;99.10;;;;;;4951811;28;19935;-77
2022/04/01 01:35:55;;;;;;;;;;;6.60;99.10;;;;;;4958781;28;19978;-77
2022/04/01 01:38:22;;;;;;;;;;;6.60;98.90;;;;;;4959593;28;19934;-77
2022/04/01 01:40:49;;;;;;;;;;;6.50;99.00;;;;;;4949183;28;19946;-77
2022/04/01 01:43:17;;;;;;;;;;;6.60;99.10;;;;;;4956297;28;19926;-77
2022/04/01 01:45:44;;;;;;;;;;;6.50;98.90;;;;;;4977127;28;19979;-76
2022/04/01 01:48:11;;;;;;;;;;;6.50;98.80;;;;;;4954787;28;19981;-77
2022/04/01 01:56:07;;;;;;;;;;;6.50;98.90;;;;;;4964692;28;19985;-79
2022/04/01 01:58:38;;;;;;;;;;;6.50;98.80;;;;;;4983519;28;20420;-78
2022/04/01 02:01:05;;;;;;;;;;;6.40;98.70;;;;;;4969537;28;19934;-76
2022/04/01 02:03:31;;;;;;;;;;;6.40;98.70;;;;;;4956011;28;20421;-77
2022/04/01 02:05:58;;;;;;;;;;;6.40;98.90;;;;;;4955063;28;19927;-77
2022/04/01 02:08:25;;;;;;;;;;;6.40;98.70;;;;;;4954415;28;19931;-76
2022/04/01 02:10:52;;;;;;;;;;;6.40;98.60;;;;;;4973917;28;19953;-77
2022/04/01 02:13:19;;;;;;;;;;;6.30;98.70;;;;;;4950558;28;19934;-76
2022/04/01 02:15:47;;;;;;;;;;;6.30;98.70;;;;;;4965529;28;19973;-77
2022/04/01 02:18:14;;;;;;;;;;;6.30;98.60;;;;;;4953250;28;20422;-77
2022/04/01 02:20:41;;;;;;;;;;;6.30;98.60;;;;;;4957769;28;19926;-77
2022/04/01 02:23:09;;;;;;;;;;;6.20;98.70;;;;;;4953840;28;20416;-76
2022/04/01 02:25:36;;;;;;;;;;;6.20;98.70;;;;;;4957786;28;20405;-77
2022/04/01 02:28:04;;;;;;;;;;;6.20;98.80;;;;;;4967374;28;20013;-76
2022/04/01 02:30:32;;;;;;;;;;;6.20;98.70;;;;;;4952639;28;19926;-76
2022/04/01 02:33:23;;;;;;;;;;;6.20;98.80;;;;;;4945962;28;19933;-77
2022/04/01 02:35:57;;;;;;;;;;;6.20;98.70;;;;;;4969680;28;20393;-78
2022/04/01 02:38:26;;;;;;;;;;;6.10;98.70;;;;;;4954759;28;20025;-77
2022/04/01 02:40:54;;;;;;;;;;;6.10;98.70;;;;;;4954366;28;20014;-75
2022/04/01 02:43:21;;;;;;;;;;;6.10;98.80;;;;;;4946077;28;19927;-77
2022/04/01 02:45:49;;;;;;;;;;;6.10;98.80;;;;;;4953561;28;19957;-77
2022/04/01 02:48:18;;;;;;;;;;;;;;;;;;4955772;28;19934;-78
2022/04/01 02:51:06;;;;;;;;;;;6.10;98.40;;;;;;4954127;28;19930;-77
2022/04/01 02:53:34;;;;;;;;;;;6.10;98.60;;;;;;4955529;28;20499;-76
2022/04/01 02:56:02;;;;;;;;;;;6.10;98.60;;;;;;4966336;28;19934;-77
2022/04/01 02:58:29;;;;;;;;;;;6.10;98.50;;;;;;4955457;28;19932;-76
2022/04/01 03:00:56;;;;;;;;;;;6.00;98.40;;;;;;4949666;28;19934;-77
2022/04/01 03:03:24;;;;;;;;;;;6.00;98.50;;;;;;4954259;28;19940;-77
2022/04/01 03:05:51;;;;;;;;;;;5.90;98.20;;;;;;4950477;28;20551;-77
2022/04/01 03:08:20;;;;;;;;;;;5.90;98.20;;;;;;4962837;28;19973;-77
2022/04/01 03:10:46;;;;;;;;;;;5.70;98.00;;;;;;4946376;28;19927;-77
2022/04/01 03:13:14;;;;;;;;;;;5.60;97.90;;;;;;4967668;28;19946;-77
2022/04/01 03:15:59;;;;;;;;;;;5.60;98.10;;;;;;4956154;28;19938;-79
2022/04/01 03:18:49;;;;;;;;;;;5.50;98.10;;;;;;4946491;28;19927;-79
2022/04/01 03:21:16;;;;;;;;;;;5.50;97.90;;;;;;4965908;28;20345;-79
2022/04/01 03:23:47;;;;;;;;;;;5.40;98.10;;;;;;4978796;28;19931;-79
2022/04/01 03:26:17;;;;;;;;;;;5.40;98.00;;;;;;4983958;28;19926;-78
2022/04/01 03:28:52;;;;;;;;;;;5.40;98.00;;;;;;4958148;28;20037;-79
2022/04/01 03:31:19;;;;;;;;;;;5.40;98.00;;;;;;4958475;28;19927;-78
2022/04/01 03:33:46;;;;;;;;;;;5.40;98.00;;;;;;4956744;28;19930;-79
2022/04/01 03:36:14;;;;;;;;;;;5.30;97.80;;;;;;4970647;28;19927;-79
2022/04/01 03:38:47;;;;;;;;;;;5.30;97.90;;;;;;4952034;28;20551;-79
2022/04/01 03:41:21;;;;;;;;;;;5.30;98.00;;;;;;4954792;28;19966;-79
2022/04/01 03:43:51;;;;;;;;;;;5.30;98.20;;;;;;4960010;28;19927;-80
2022/04/01 03:46:19;;;;;;;;;;;5.30;97.90;;;;;;4979768;28;19992;-78
2022/04/01 03:48:49;;;;;;;;;;;5.20;98.00;;;;;;4958786;28;19933;-79
2022/04/01 03:51:19;;;;;;;;;;;5.20;98.10;;;;;;4951072;28;19926;-81
2022/04/01 03:53:53;;;;;;;;;;;5.20;98.10;;;;;;4952900;28;20316;-79
2022/04/01 03:56:22;;;;;;;;;;;5.20;98.10;;;;;;4962753;28;19930;-79
2022/04/01 03:59:08;;;;;;;;;;;5.20;98.00;;;;;;4955796;28;19985;-78
2022/04/01 04:02:13;;;;;;;;;;;5.10;98.10;;;;;;4949775;28;19938;-79
2022/04/01 04:04:43;;;;;;;;;;;5.10;98.20;;;;;;4961766;28;20295;-79
2022/04/01 04:07:10;;;;;;;;;;;5.10;98.30;;;;;;4945669;28;20504;-78
2022/04/01 04:09:45;;;;;;;;;;;5.00;98.20;;;;;;4947033;28;19955;-79
2022/04/01 04:12:13;;;;;;;;;;;5.00;98.30;;;;;;4948425;28;19965;-79
2022/04/01 04:14:43;;;;;;;;;;;5.00;98.20;;;;;;4953657;28;19930;-77
2022/04/01 04:17:15;;;;;;;;;;;5.00;98.10;;;;;;4943419;28;19935;-77
2022/04/01 04:19:49;;;;;;;;;;;5.00;98.20;;;;;;4942828;28;19933;-79
2022/04/01 04:22:20;;;;;;;;;;;5.00;98.10;;;;;;4966781;28;19934;-79
2022/04/01 04:24:58;;;;;;;;;;;5.00;98.20;;;;;;4952816;28;19941;-78
2022/04/01 04:27:26;;;;;;;;;;;4.90;98.20;;;;;;4952905;28;19937;-78
2022/04/01 04:29:56;;;;;;;;;;;4.90;98.20;;;;;;4945248;28;19931;-78
2022/04/01 04:32:31;;;;;;;;;;;4.90;98.30;;;;;;4947225;28;19934;-78
2022/04/01 04:34:58;;;;;;;;;;;4.90;98.30;;;;;;4959152;28;21229;-78
2022/04/01 04:37:28;;;;;;;;;;;4.90;98.40;;;;;;4947667;28;19941;-80
2022/04/01 04:39:57;;;;;;;;;;;4.90;98.50;;;;;;4968164;28;19931;-78
2022/04/01 04:42:24;;;;;;;;;;;4.90;98.90;;;;;;4960681;28;19926;-78
2022/04/01 04:44:53;;;;;;;;;;;4.80;98.40;;;;;;4944507;28;20606;-78
2022/04/01 04:47:26;;;;;;;;;;;4.90;98.80;;;;;;4946164;28;19941;-78
2022/04/01 04:49:57;;;;;;;;;;;4.80;98.60;;;;;;4966969;28;19934;-80
2022/04/01 04:52:27;;;;;;;;;;;4.80;98.70;;;;;;4944118;28;19934;-78
2022/04/01 04:54:57;;;;;;;;;;;4.80;98.80;;;;;;4949609;28;19942;-78
2022/04/01 04:57:36;;;;;;;;;;;4.80;98.70;;;;;;4952186;28;19926;-79
2022/04/01 05:00:05;;;;;;;;;;;4.80;98.90;;;;;;4952388;28;19981;-78
2022/04/01 05:03:07;;;;;;;;;;;4.80;98.90;;;;;;4947562;28;20475;-78
2022/04/01 05:05:38;;;;;;;;;;;4.70;99.00;;;;;;4946119;28;19934;-79
2022/04/01 05:08:27;;;;;;;;;;;4.80;99.00;;;;;;4952990;28;19949;-78
2022/04/01 05:11:36;;;;;;;;;;;4.70;99.10;;;;;;4925040;28;19930;-78
2022/04/01 05:14:11;;;;;;;;;;;4.70;99.10;;;;;;4943612;28;19927;-78
2022/04/01 05:16:44;;;;;;;;;;;4.70;99.20;;;;;;4967167;28;20323;-78
2022/04/01 05:19:12;;;;;;;;;;;4.70;99.30;;;;;;4947853;28;19933;-77
2022/04/01 05:21:45;;;;;;;;;;;4.70;99.40;;;;;;4941132;28;19930;-78
2022/04/01 05:24:14;;;;;;;;;;;4.70;99.60;;;;;;4951000;28;20430;-78
2022/04/01 05:26:45;;;;;;;;;;;4.70;99.40;;;;;;4962415;28;19941;-78
2022/04/01 05:29:14;;;;;;;;;;;4.70;99.30;;;;;;4947771;28;20401;-78
2022/04/01 05:31:46;;;;;;;;;;;4.70;99.60;;;;;;4952312;28;19937;-78
2022/04/01 05:34:18;;;;;;;;;;;4.60;99.40;;;;;;4949648;28;20346;-78
2022/04/01 05:36:46;;;;;;;;;;;4.60;99.50;;;;;;4952262;28;19974;-78
2022/04/01 05:39:15;;;;;;;;;;;4.60;99.30;;;;;;4947617;28;19934;-78
2022/04/01 05:41:50;;;;;;;;;;;4.60;99.40;;;;;;4956318;28;19934;-77
2022/04/01 05:44:17;;;;;;;;;;;4.60;99.40;;;;;;4958542;28;19999;-79
2022/04/01 05:46:45;;;;;;;;;;;4.60;99.40;;;;;;5029103;23;20002;-78
2022/04/01 05:49:16;;;;;;;;;;;4.60;99.70;;;;;;4943988;28;20016;-80
2022/04/01 05:51:43;;;;;;;;;;;4.60;99.80;;;;;;4959491;28;20305;-78
2022/04/01 05:54:10;;;;;;;;;;;4.60;99.90;;;;;;4953068;28;20005;-79
2022/04/01 05:56:38;;;;;;;;;;;4.60;99.90;;;;;;4958198;28;19976;-79
2022/04/01 05:59:07;;;;;;;;;;;4.60;99.90;;;;;;4975416;28;19933;-78
2022/04/01 06:01:41;;;;;;;;;;;4.60;99.90;;;;;;4962765;28;19980;-79
2022/04/01 06:04:28;;;;;;;;;;;4.60;99.90;;;;;;4960056;28;20351;-79
2022/04/01 06:06:59;;;;;;;;;;;4.60;99.90;;;;;;4959513;28;19941;-78
2022/04/01 06:09:33;;;;;;;;;;;4.60;99.90;;;;;;4955721;28;19930;-78
2022/04/01 06:12:15;;;;;;;;;;;4.50;99.90;;;;;;4971926;28;19926;-78
2022/04/01 06:15:17;;;;;;;;;;;4.50;99.90;;;;;;4933636;28;20313;-78
2022/04/01 06:18:05;;;;;;;;;;;4.60;99.90;;;;;;4975306;28;19933;-79
2022/04/01 06:20:33;;;;;;;;;;;4.60;99.90;;;;;;4981625;28;19926;-79
2022/04/01 06:23:01;;;;;;;;;;;4.50;99.90;;;;;;4960668;28;19954;-79
2022/04/01 06:25:30;;;;;;;;;;;4.50;99.90;;;;;;4981151;28;19934;-79
2022/04/01 06:28:01;;;;;;;;;;;4.50;99.90;;;;;;4964028;28;20427;-79
2022/04/01 06:30:30;;;;;;;;;;;4.50;99.90;;;;;;4968687;28;19930;-78
2022/04/01 06:33:06;;;;;;;;;;;4.50;99.90;;;;;;4954417;28;19958;-78
2022/04/01 06:36:01;;;;;;;;;;;4.50;99.90;;;;;;4968189;28;19929;-78
2022/04/01 06:38:38;;;;;;;;;;;4.50;99.90;;;;;;4960120;28;19926;-79
2022/04/01 06:41:06;;;;;;;;;;;4.50;99.90;;;;;;4983516;28;19976;-79
2022/04/01 06:43:41;;;;;;;;;;;4.50;99.90;;;;;;4960890;28;19932;-78
2022/04/01 06:46:28;;;;;;;;;;;4.50;99.90;;;;;;4979926;28;19932;-78
2022/04/01 06:48:57;;;;;;;;;;;4.50;99.90;;;;;;4965090;28;20010;-78
2022/04/01 06:51:47;;;;;;;;;;;4.50;99.90;;;;;;4960373;28;19961;-78
2022/04/01 06:54:26;;;;;;;;;;;4.50;99.90;;;;;;4980825;28;20005;-79
2022/04/01 06:57:20;;;;;;;;;;;4.50;99.90;;;;;;4983581;28;19927;-79
2022/04/01 07:00:12;;;;;;;;;;;4.50;99.90;;;;;;4961282;28;19926;-78
2022/04/01 07:02:41;;;;;;;;;;;4.50;99.90;;;;;;4981256;28;19926;-78
2022/04/01 07:05:09;;;;;;;;;;;4.50;99.90;;;;;;4956300;28;19937;-79
2022/04/01 07:07:36;;;;;;;;;;;4.50;99.90;;;;;;4976805;28;19965;-78
2022/04/01 07:10:03;;;;;;;;;;;4.50;99.90;;;;;;4960710;28;19927;-78
2022/04/01 07:12:31;;;;;;;;;;;4.50;99.90;;;;;;4976043;28;19934;-79
2022/04/01 07:14:58;;;;;;;;;;;4.50;99.90;;;;;;4952961;28;20025;-78
2022/04/01 07:17:26;;;;;;;;;;;4.50;99.90;;;;;;4980404;28;20300;-78
2022/04/01 07:19:54;;;;;;;;;;;4.50;99.90;;;;;;4972956;28;19926;-78
2022/04/01 07:22:21;;;;;;;;;;;4.50;99.90;;;;;;4974335;28;19929;-78
2022/04/01 07:24:48;;;;;;;;;;;4.50;99.90;;;;;;4962607;28;19981;-78
2022/04/01 07:27:15;;;;;;;;;;;4.50;99.90;;;;;;4973937;28;19955;-79
2022/04/01 07:29:41;;;;;;;;;;;4.50;99.90;;;;;;4976923;28;19926;-78
2022/04/01 07:34:54;;;;;;;;;;;4.50;99.90;;;;;;4967526;28;20072;-78
2022/04/01 07:37:23;;;;;;;;;;;4.50;99.90;;;;;;4975104;28;20312;-79
2022/04/01 07:39:50;;;;;;;;;;;4.50;99.90;;;;;;4979385;28;19930;-78
2022/04/01 07:42:18;;;;;;;;;;;4.50;99.90;;;;;;4971984;28;20339;-78
2022/04/01 07:44:45;;;;;;;;;;;4.50;99.90;;;;;;4961205;28;19965;-78
2022/04/01 07:47:14;;;;;;;;;;;4.50;99.90;;;;;;4986571;28;20327;-78
2022/04/01 07:49:41;;;;;;;;;;;4.50;99.90;;;;;;4976140;28;20025;-79
2022/04/01 07:52:11;;;;;;;;;;;4.50;99.90;;;;;;4983748;28;20384;-78
2022/04/01 07:54:38;;;;;;;;;;;4.50;99.90;;;;;;4975537;28;19934;-78
2022/04/01 07:57:06;;;;;;;;;;;4.50;99.90;;;;;;4984359;28;19952;-79
2022/04/01 07:59:34;;;;;;;;;;;4.50;99.90;;;;;;4980304;28;20532;-79
2022/04/01 08:02:01;;;;;;;;;;;4.50;99.90;;;;;;4979867;28;19926;-79
2022/04/01 08:04:28;;;;;;;;;;;4.50;99.90;;;;;;4977662;28;19926;-79
2022/04/01 08:06:55;;;;;;;;;;;4.50;99.90;;;;;;4966924;28;19932;-78
2022/04/01 08:09:24;;;;;;;;;;;4.60;99.90;;;;;;4979092;28;19926;-78
2022/04/01 08:11:51;;;;;;;;;;;4.60;99.90;;;;;;4975922;28;20044;-78
2022/04/01 08:14:18;;;;;;;;;;;4.60;99.90;;;;;;4974340;28;20407;-78
2022/04/01 08:16:45;;;;;;;;;;;4.60;99.90;;;;;;4978607;28;19932;-78
2022/04/01 08:19:13;;;;;;;;;;;4.60;99.90;;;;;;4954983;28;19926;-78
2022/04/01 08:21:40;;;;;;;;;;;4.60;99.90;;;;;;4981995;28;19980;-79
2022/04/01 08:24:07;;;;;;;;;;;4.60;99.90;;;;;;4978223;28;19926;-78
2022/04/01 08:26:35;;;;;;;;;;;4.60;99.90;;;;;;4975903;28;19926;-78
2022/04/01 08:29:03;;;;;;;;;;;4.60;99.90;;;;;;4979262;28;20028;-79
2022/04/01 08:31:33;;;;;;;;;;;4.60;99.90;;;;;;4969709;28;20006;-78
2022/04/01 08:34:00;;;;;;;;;;;4.60;99.90;;;;;;4978823;28;20035;-78
2022/04/01 08:36:27;;;;;;;;;;;4.60;99.90;;;;;;4978468;28;19972;-78
2022/04/01 08:38:54;;;;;;;;;;;4.60;99.90;;;;;;4975582;28;20308;-79
2022/04/01 08:41:22;;;;;;;;;;;4.60;99.90;;;;;;4958537;28;20393;-78
2022/04/01 08:43:51;;;;;;;;;;;4.60;99.90;;;;;;4975004;28;20397;-78
2022/04/01 08:46:18;;;;;;;;;;;4.60;99.90;;;;;;4979254;28;19926;-78
2022/04/01 08:48:46;;;;;;;;;;;4.60;99.90;;;;;;4975142;28;19972;-78
2022/04/01 08:51:14;;;;;;;;;;;4.60;99.90;;;;;;4963028;28;19926;-78
2022/04/01 08:53:42;;;;;;;;;;;4.60;99.90;;;;;;4985448;28;20016;-78
2022/04/01 08:56:09;;;;;;;;;;;4.60;99.90;;;;;;4988049;28;19933;-78
2022/04/01 08:58:36;;;;;;;;;;;4.60;99.90;;;;;;4978531;28;19933;-79
2022/04/01 09:01:05;;;;;;;;;;;4.60;99.90;;;;;;4981085;28;19961;-79
2022/04/01 09:03:32;;;;;;;;;;;4.60;99.90;;;;;;4978057;28;19926;-78
2022/04/01 09:06:01;;;;;;;;;;;4.60;99.90;;;;;;4976192;28;19984;-78
2022/04/01 09:08:30;;;;;;;;;;;4.60;99.90;;;;;;4968405;28;19934;-78
2022/04/01 09:10:58;;;;;;;;;;;4.50;99.90;;;;;;4971951;28;19926;-79
2022/04/01 09:13:26;;;;;;;;;;;4.50;99.90;;;;;;4970920;28;19930;-79
2022/04/01 09:15:53;;;;;;;;;;;4.50;99.90;;;;;;4967412;28;19937;-78
2022/04/01 09:18:41;;;;;;;;;;;4.60;99.90;;;;;;4977640;28;22128;-79
2022/04/01 09:21:09;;;;;;;;;;;4.60;99.90;;;;;;4968551;28;19933;-78
2022/04/01 09:23:36;;;;;;;;;;;4.50;99.90;;;;;;4979589;28;20336;-79
2022/04/01 09:26:03;;;;;;;;;;;4.60;99.90;;;;;;4972843;28;20033;-79
2022/04/01 09:28:31;;;;;;;;;;;4.50;99.90;;;;;;4958691;28;20018;-78
2022/04/01 09:30:59;;;;;;;;;;;4.60;99.90;;;;;;4976018;28;20024;-78
2022/04/01 09:33:32;;;;;;;;;;;4.50;99.90;;;;;;4964526;28;19937;-78
2022/04/01 09:36:04;;;;;;;;;;;4.60;99.90;;;;;;4967284;28;19981;-78
2022/04/01 09:38:31;;;;;;;;;;;4.60;99.90;;;;;;4970406;28;19938;-79
2022/04/01 09:41:02;;;;;;;;;;;4.90;99.90;;;;;;4952250;28;19941;-78
2022/04/01 09:43:29;;;;;;;;;;;5.00;99.90;;;;;;4972602;28;20022;-78
2022/04/01 09:45:56;;;;;;;;;;;5.10;99.90;;;;;;4970069;28;19997;-79
2022/04/01 09:48:23;;;;;;;;;;;5.10;99.90;;;;;;4968267;28;19926;-79
2022/04/01 09:50:59;;;;;;;;;;;5.10;99.90;;;;;;4946767;28;20337;-79
2022/04/01 09:53:28;;;;;;;;;;;5.10;99.90;;;;;;4954637;28;19954;-79
2022/04/01 09:55:55;;;;;;;;;;;5.10;99.90;;;;;;4971126;28;19982;-78
2022/04/01 09:58:22;;;;;;;;;;;5.00;99.90;;;;;;4972450;28;19939;-79
2022/04/01 10:00:51;;;;;;;;;;;5.10;99.90;;;;;;4971037;28;19926;-79
2022/04/01 10:03:19;;;;;;;;;;;5.00;99.90;;;;;;4977817;28;20328;-79
2022/04/01 10:05:46;;;;;;;;;;;5.00;99.90;;;;;;4958101;28;19930;-79
2022/04/01 10:08:13;;;;;;;;;;;5.00;99.90;;;;;;4976352;28;19953;-78
2022/04/01 10:10:42;;;;;;;;;;;5.00;99.90;;;;;;4959514;28;19969;-78
2022/04/01 10:13:11;;;;;;;;;;;5.00;99.90;;;;;;4956225;28;19969;-79
2022/04/01 10:15:41;;;;;;;;;;;5.00;99.90;;;;;;4966979;28;19930;-79
2022/04/01 10:18:08;;;;;;;;;;;4.90;99.90;;;;;;4959624;28;20404;-78
2022/04/01 10:20:35;;;;;;;;;;;4.90;99.90;;;;;;4982525;28;19926;-78
2022/04/01 10:23:03;;;;;;;;;;;4.90;99.90;;;;;;4975282;28;19929;-79
2022/04/01 10:25:32;;;;;;;;;;;4.90;99.90;;;;;;4977900;28;19934;-78
2022/04/01 10:28:02;;;;;;;;;;;4.90;99.90;;;;;;4974201;28;19980;-79
2022/04/01 10:30:31;;;;;;;;;;;4.90;99.90;;;;;;4972959;28;20037;-78
2022/04/01 10:32:58;;;;;;;;;;;4.90;99.90;;;;;;4978595;28;19989;-79
2022/04/01 10:35:26;;;;;;;;;;;4.90;99.90;;;;;;4961670;28;19934;-79
2022/04/01 10:37:53;;;;;;;;;;;4.80;99.90;;;;;;4961426;28;19933;-78
2022/04/01 10:40:20;;;;;;;;;;;4.80;99.90;;;;;;4981410;28;19932;-79
2022/04/01 10:42:48;;;;;;;;;;;4.80;99.90;;;;;;4973317;28;19941;-78
2022/04/01 10:45:26;;;;;;;;;;;4.80;99.90;;;;;;4977060;28;19926;-78
2022/04/01 10:53:35;;;;;;;;;;;4.80;99.90;;;;;;4972884;28;19922;-79
2022/04/01 10:56:35;;;;;;;;;;;4.70;99.90;;;;;;4969261;28;19926;-79
2022/04/01 10:59:10;;;;;;;;;;;4.70;99.90;;;;;;4907532;29;20397;-79
2022/04/01 11:01:40;;;;;;;;;;;4.70;99.90;;;;;;4905847;29;20495;-79
2022/04/01 11:04:27;;;;;;;;;;;4.70;99.90;;;;;;4924282;28;20014;-79
2022/04/01 11:06:55;;;;;;;;;;;4.70;99.90;;;;;;4973050;28;19926;-78
2022/04/01 11:09:35;;;;;;;;;;;4.70;99.90;;;;;;4976324;28;19941;-77
2022/04/01 11:12:21;;;;;;;;;;;4.70;99.90;;;;;;4948842;28;19933;-78
2022/04/01 11:15:22;;;;;;;;;;;4.70;99.90;;;;;;4967955;28;19933;-78
2022/04/01 11:18:03;;;;;;;;;;;4.60;99.90;;;;;;4856466;29;19977;-79
2022/04/01 11:20:32;;;;;;;;;;;4.60;99.90;;;;;;4874249;29;20026;-78
2022/04/01 11:23:01;;;;;;;;;;;4.60;99.90;;;;;;4928800;28;19934;-79
2022/04/01 11:25:54;;;;;;;;;;;4.60;99.90;;;;;;4975422;28;19926;-79
2022/04/01 11:28:22;;;;;;;;;;;4.60;99.90;;;;;;4965790;28;19934;-77
2022/04/01 11:31:19;;;;;;;;;;;4.60;99.90;;;;;;4968277;28;20029;-79
2022/04/01 11:34:01;;;;;;;;;;;4.60;99.90;;;;;;4928903;29;19949;-79
2022/04/01 11:36:29;;;;;;;;;;;4.60;99.90;;;;;;4969934;28;19933;-79
2022/04/01 11:38:56;;;;;;;;;;;4.60;99.90;;;;;;4972805;28;19929;-79
2022/04/01 11:41:23;;;;;;;;;;;4.50;99.90;;;;;;4968561;28;19934;-79
2022/04/01 11:43:50;;;;;;;;;;;4.50;99.90;;;;;;4970551;28;19926;-79
2022/04/01 11:46:17;;;;;;;;;;;4.50;99.90;;;;;;4971353;28;19953;-79
2022/04/01 11:48:45;;;;;;;;;;;4.50;99.90;;;;;;4965059;28;19936;-78
2022/04/01 11:51:15;;;;;;;;;;;4.40;99.90;;;;;;4969512;28;19930;-78
2022/04/01 11:53:43;;;;;;;;;;;4.40;99.90;;;;;;4971831;28;19930;-78
2022/04/01 11:56:11;;;;;;;;;;;4.40;99.90;;;;;;4975079;28;19980;-78
2022/04/01 11:58:50;;;;;;;;;;;4.40;99.90;;;;;;4951926;28;19926;-78
2022/04/01 12:01:17;;;;;;;;;;;4.40;99.90;;;;;;4945405;28;19934;-78
2022/04/01 12:03:45;;;;;;;;;;;4.40;99.90;;;;;;4971945;28;19937;-78
2022/04/01 12:09:02;;;;;;;;;;;4.40;99.90;;;;;;4956743;28;19930;-77
2022/04/01 12:11:29;;;;;;;;;;;4.40;99.90;;;;;;4967935;28;19985;-78
2022/04/01 12:13:56;;;;;;;;;;;4.40;99.90;;;;;;4973576;28;20017;-78
2022/04/01 12:16:24;;;;;;;;;;;4.40;99.90;;;;;;4967032;28;20385;-78
2022/04/01 12:18:51;;;;;;;;;;;4.40;99.90;;;;;;4955122;28;20427;-79
2022/04/01 12:21:20;;;;;;;;;;;4.40;99.90;;;;;;4976186;28;20321;-79
2022/04/01 12:23:50;;;;;;;;;;;4.40;99.90;;;;;;4975136;28;19972;-79
2022/04/01 12:26:17;;;;;;;;;;;4.40;99.90;;;;;;4952844;28;20041;-78
2022/04/01 12:28:45;;;;;;;;;;;4.40;99.90;;;;;;4960110;28;19933;-78
2022/04/01 12:31:19;;;;;;;;;;;4.40;99.90;;;;;;4954780;28;20009;-78
2022/04/01 12:33:47;;;;;;;;;;;4.40;99.90;;;;;;4957484;28;19927;-80
2022/04/01 12:36:14;;;;;;;;;;;4.40;99.90;;;;;;4972969;28;19925;-79
2022/04/01 12:38:42;;;;;;;;;;;4.40;99.90;;;;;;4965012;23;19930;-79
2022/04/01 12:41:15;;;;;;;;;;;4.40;99.90;;;;;;4945515;28;19926;-79
2022/04/01 12:43:43;;;;;;;;;;;4.40;99.90;;;;;;4958236;28;19977;-79
2022/04/01 12:46:11;;;;;;;;;;;4.40;99.90;;;;;;4936498;28;19931;-80
2022/04/01 12:48:48;;;;;;;;;;;4.40;99.90;;;;;;4937092;29;19927;-79
2022/04/01 12:51:20;;;;;;;;;;;4.40;99.90;;;;;;4937930;29;19926;-79
2022/04/01 12:53:58;;;;;;;;;;;4.40;99.90;;;;;;4938124;29;19927;-79
2022/04/01 12:56:26;;;;;;;;;;;4.50;99.90;;;;;;4938642;29;19931;-79
2022/04/01 12:58:54;;;;;;;;;;;4.50;99.90;;;;;;4940618;29;19931;-79
2022/04/01 13:01:21;;;;;;;;;;;4.50;99.90;;;;;;4938763;29;19950;-80
2022/04/01 13:03:49;;;;;;;;;;;4.50;99.90;;;;;;4930261;29;19935;-79
2022/04/01 13:06:16;;;;;;;;;;;4.50;99.90;;;;;;4939240;29;19937;-79
2022/04/01 13:08:43;;;;;;;;;;;4.50;99.90;;;;;;4936186;29;19954;-79
2022/04/01 13:11:13;;;;;;;;;;;4.60;99.90;;;;;;4938467;29;19926;-79
2022/04/01 13:13:40;;;;;;;;;;;4.60;99.90;;;;;;4931988;29;19986;-79
2022/04/01 13:16:07;;;;;;;;;;;4.60;99.90;;;;;;4938009;28;19974;-79
2022/04/01 13:18:34;;;;;;;;;;;4.60;99.90;;;;;;4932418;29;19934;-79
2022/04/01 13:21:01;;;;;;;;;;;4.60;99.90;;;;;;4938987;29;19931;-80
2022/04/01 13:23:31;;;;;;;;;;;4.60;99.90;;;;;;4931414;29;19989;-80
2022/04/01 13:25:58;;;;;;;;;;;4.60;99.90;;;;;;4921718;29;19974;-79
2022/04/01 13:28:27;;;;;;;;;;;4.60;99.90;;;;;;4933272;29;19967;-80
2022/04/01 13:30:53;;;;;;;;;;;4.60;99.90;;;;;;4936102;29;19927;-79
2022/04/01 13:33:20;;;;;;;;;;;4.70;99.90;;;;;;4934864;29;19931;-79
2022/04/01 13:35:47;;;;;;;;;;;4.60;99.90;;;;;;4938927;29;19962;-79
2022/04/01 13:38:14;;;;;;;;;;;4.70;99.90;;;;;;4936151;29;19927;-80
2022/04/01 13:40:41;;;;;;;;;;;4.70;99.90;;;;;;4937826;29;19926;-80
2022/04/01 13:43:08;;;;;;;;;;;4.70;99.90;;;;;;4939796;29;19926;-79
2022/04/01 13:45:39;;;;;;;;;;;4.70;99.90;;;;;;4936472;29;19933;-79
2022/04/01 13:48:07;;;;;;;;;;;4.70;99.90;;;;;;4940326;29;19926;-79
2022/04/01 13:50:34;;;;;;;;;;;4.70;99.90;;;;;;4931939;29;19927;-78
2022/04/01 13:53:02;;;;;;;;;;;4.70;99.90;;;;;;4927763;29;20370;-78
2022/04/01 13:55:29;;;;;;;;;;;4.70;99.90;;;;;;4930080;29;20314;-79
2022/04/01 13:57:57;;;;;;;;;;;4.70;99.90;;;;;;4927776;29;19938;-79
2022/04/01 14:00:23;;;;;;;;;;;4.70;99.90;;;;;;4926100;29;20473;-78
2022/04/01 14:02:52;;;;;;;;;;;4.70;99.90;;;;;;4932477;29;19927;-78
2022/04/01 14:05:19;;;;;;;;;;;4.70;99.90;;;;;;4926022;29;20457;-78
2022/04/01 14:07:46;;;;;;;;;;;4.70;99.90;;;;;;4926892;29;19930;-78
2022/04/01 14:10:12;;;;;;;;;;;4.70;99.90;;;;;;4932346;29;19926;-79
2022/04/01 14:12:39;;;;;;;;;;;4.70;99.90;;;;;;4933960;29;19927;-78
2022/04/01 14:15:07;;;;;;;;;;;4.70;99.90;;;;;;4939854;29;19934;-79
2022/04/01 14:17:34;;;;;;;;;;;4.70;99.90;;;;;;4913960;29;19966;-78
2022/04/01 14:20:04;;;;;;;;;;;4.60;99.90;;;;;;4928437;29;20286;-78
2022/04/01 14:22:31;;;;;;;;;;;4.60;99.90;;;;;;4927937;29;19935;-78
2022/04/01 14:24:58;;;;;;;;;;;4.60;99.90;;;;;;4912656;29;19966;-80
2022/04/01 14:27:24;;;;;;;;;;;4.60;99.90;;;;;;4914136;29;19934;-78
2022/04/01 14:32:39;;;;;;;;;;;4.70;99.90;;;;;;4928486;29;19973;-78
2022/04/01 14:35:08;;;;;;;;;;;4.60;99.90;;;;;;4930333;29;19931;-78
2022/04/01 14:37:35;;;;;;;;;;;4.60;99.90;;;;;;4930546;28;20518;-80
2022/04/01 14:40:02;;;;;;;;;;;4.60;99.90;;;;;;4930880;29;20025;-78
2022/04/01 14:42:29;;;;;;;;;;;4.60;99.90;;;;;;4932047;29;19933;-78
2022/04/01 14:44:56;;;;;;;;;;;4.60;99.90;;;;;;4930728;29;20393;-78
2022/04/01 14:47:24;;;;;;;;;;;4.60;99.90;;;;;;4935229;29;19927;-78
2022/04/01 14:49:51;;;;;;;;;;;4.60;99.90;;;;;;4934777;29;19933;-79
2022/04/01 14:52:19;;;;;;;;;;;4.60;99.90;;;;;;4936490;29;19966;-78
2022/04/01 14:54:46;;;;;;;;;;;4.60;99.90;;;;;;4928581;29;19931;-77
2022/04/01 14:57:13;;;;;;;;;;;4.60;99.90;;;;;;4928979;29;19982;-77
2022/04/01 14:59:40;;;;;;;;;;;4.60;99.90;;;;;;4927982;29;19937;-77
2022/04/01 15:02:07;;;;;;;;;;;4.50;99.90;;;;;;4927981;29;19934;-77
2022/04/01 15:04:34;;;;;;;;;;;4.50;99.90;;;;;;4928917;29;19927;-78
2022/04/01 15:07:03;;;;;;;;;;;4.50;99.90;;;;;;4924251;29;20091;-77
2022/04/01 15:09:33;;;;;;;;;;;4.50;99.90;;;;;;4919962;29;19937;-77